Terminal Aerodrome Forecast
Issued by NWS Grand Forks, ND

Home | Current Version | Previous Version | Graphics & Text | Print | Product List | Glossary On
Versions: 1 2 3 4 5 6 7 8 9 10 11 12 13 14 15 16 17 18 19 20
000
FTUS43 KFGF 240422 AAB
TAFFAR
TAF AMD
KFAR 240422Z 2404/2424 03007KT P6SM -SHRA OVC009
     FM240900 02007KT 5SM -SHRA OVC008
     FM241600 34007KT P6SM VCSH OVC008=

USA.gov is the U.S. government's official web portal to all federal, state and local government web resources and services.